Time,TemperatureF,DewpointF,PressureIn,WindDirection,WindDirectionDegrees,WindSpeedMPH,WindSpeedGustMPH,Humidity,HourlyPrecipIn,Conditions,Clouds,dailyrainin,SoftwareType,DateUTC
2013-04-22 00:01:00,38.9,25.8,30.51,ESE,105,2.0,3.0,59,0.00,,---,0.00,VWS V14.01,2013-04-22 04:01:00,
2013-04-22 00:06:00,39.1,25.6,30.51,ESE,105,0.0,0.0,58,0.00,,---,0.00,VWS V14.01,2013-04-22 04:06:00,
2013-04-22 00:11:00,38.9,26.2,30.51,ESE,105,0.0,0.0,60,0.00,,---,0.00,VWS V14.01,2013-04-22 04:11:00,
2013-04-22 00:16:00,38.8,25.7,30.51,ESE,105,0.0,0.0,59,0.00,,---,0.00,VWS V14.01,2013-04-22 04:16:00,
2013-04-22 00:21:00,38.8,26.1,30.51,ESE,105,0.0,0.0,60,0.00,,---,0.00,VWS V14.01,2013-04-22 04:21:00,
2013-04-22 00:26:00,38.3,25.6,30.51,ESE,105,0.0,0.0,60,0.00,,---,0.00,VWS V14.01,2013-04-22 04:26:00,
2013-04-22 00:31:00,38.2,26.0,30.51,ESE,105,0.0,0.0,61,0.00,,---,0.00,VWS V14.01,2013-04-22 04:31:00,
2013-04-22 00:36:00,37.6,26.5,30.51,ESE,105,0.0,0.0,64,0.00,,---,0.00,VWS V14.01,2013-04-22 04:36:00,
2013-04-22 00:41:00,37.2,26.9,30.51,ESE,105,1.0,2.0,66,0.00,,---,0.00,VWS V14.01,2013-04-22 04:41:00,
2013-04-22 00:46:00,37.0,26.7,30.51,ESE,105,0.0,0.0,66,0.00,,---,0.00,VWS V14.01,2013-04-22 04:46:00,
2013-04-22 00:51:00,37.2,26.5,30.51,ESE,105,0.0,0.0,65,0.00,,---,0.00,VWS V14.01,2013-04-22 04:51:00,
2013-04-22 00:56:00,37.0,26.3,30.51,ESE,106,3.0,3.0,65,0.00,,---,0.00,VWS V14.01,2013-04-22 04:56:00,
2013-04-22 01:01:00,37.5,26.5,30.51,ESE,106,2.0,3.0,64,0.00,,---,0.00,VWS V14.01,2013-04-22 05:01:00,
2013-04-22 01:06:00,36.8,27.2,30.51,ESE,106,1.0,3.0,68,0.00,,---,0.00,VWS V14.01,2013-04-22 05:06:00,
2013-04-22 01:11:00,37.6,26.5,30.51,ESE,106,0.0,0.0,64,0.00,,---,0.00,VWS V14.01,2013-04-22 05:11:00,
2013-04-22 01:16:00,38.5,25.8,30.51,ESE,106,0.0,0.0,60,0.00,,---,0.00,VWS V14.01,2013-04-22 05:16:00,
2013-04-22 01:21:00,38.0,26.5,30.51,ESE,106,0.0,0.0,63,0.00,,---,0.00,VWS V14.01,2013-04-22 05:21:00,
2013-04-22 01:26:00,38.0,26.5,30.51,ESE,106,0.0,0.0,63,0.00,,---,0.00,VWS V14.01,2013-04-22 05:26:00,
2013-04-22 01:31:00,37.5,26.5,30.50,ESE,106,0.0,0.0,64,0.00,,---,0.00,VWS V14.01,2013-04-22 05:31:00,
2013-04-22 01:36:00,37.8,26.4,30.50,ESE,106,0.0,0.0,63,0.00,,---,0.00,VWS V14.01,2013-04-22 05:36:00,
2013-04-22 01:41:00,37.2,26.5,30.50,ESE,106,0.0,0.0,65,0.00,,---,0.00,VWS V14.01,2013-04-22 05:41:00,
2013-04-22 01:46:00,36.6,26.7,30.50,ESE,106,0.0,0.0,67,0.00,,---,0.00,VWS V14.01,2013-04-22 05:46:00,
2013-04-22 01:51:00,36.6,26.7,30.50,ESE,106,0.0,0.0,67,0.00,,---,0.00,VWS V14.01,2013-04-22 05:51:00,
2013-04-22 01:56:00,37.3,26.3,30.50,ESE,106,0.0,0.0,64,0.00,,---,0.00,VWS V14.01,2013-04-22 05:56:00,
2013-04-22 02:01:00,37.2,26.9,30.49,ESE,107,2.0,3.0,66,0.00,,---,0.00,VWS V14.01,2013-04-22 06:01:00,
2013-04-22 02:06:00,36.2,27.0,30.49,ESE,107,0.0,1.0,69,0.00,,---,0.00,VWS V14.01,2013-04-22 06:06:00,
2013-04-22 02:11:00,35.9,26.7,30.49,ESE,107,2.0,4.0,69,0.00,,---,0.00,VWS V14.01,2013-04-22 06:11:00,
2013-04-22 02:16:00,36.3,27.1,30.49,ESE,107,0.0,0.0,69,0.00,,---,0.00,VWS V14.01,2013-04-22 06:16:00,
2013-04-22 02:21:00,36.3,28.1,30.49,ESE,107,1.0,2.0,72,0.00,,---,0.00,VWS V14.01,2013-04-22 06:21:00,
2013-04-22 02:26:00,36.8,28.3,30.49,ESE,110,4.0,4.0,71,0.00,,---,0.00,VWS V14.01,2013-04-22 06:26:00,
2013-04-22 02:31:00,37.2,28.7,30.50,ESE,115,2.0,4.0,71,0.00,,---,0.00,VWS V14.01,2013-04-22 06:31:00,
2013-04-22 02:36:00,37.2,28.3,30.50,ESE,109,1.0,3.0,70,0.00,,---,0.00,VWS V14.01,2013-04-22 06:36:00,
2013-04-22 02:41:00,36.9,28.7,30.50,East,97,4.0,4.0,72,0.00,,---,0.00,VWS V14.01,2013-04-22 06:41:00,
2013-04-22 02:46:00,36.6,28.8,30.49,East,98,1.0,2.0,73,0.00,,---,0.00,VWS V14.01,2013-04-22 06:46:00,
2013-04-22 02:51:00,36.8,29.0,30.49,East,98,2.0,5.0,73,0.00,,---,0.00,VWS V14.01,2013-04-22 06:51:00,
2013-04-22 02:56:00,37.0,29.5,30.49,East,98,2.0,3.0,74,0.00,,---,0.00,VWS V14.01,2013-04-22 06:56:00,
2013-04-22 03:01:00,37.0,29.5,30.49,East,92,2.0,4.0,74,0.00,,---,0.00,VWS V14.01,2013-04-22 07:01:00,
2013-04-22 03:06:00,37.3,29.8,30.49,East,94,3.0,4.0,74,0.00,,---,0.00,VWS V14.01,2013-04-22 07:06:00,
2013-04-22 03:11:00,37.5,30.0,30.49,ESE,122,1.0,3.0,74,0.00,,---,0.00,VWS V14.01,2013-04-22 07:11:00,
2013-04-22 03:16:00,37.3,29.8,30.49,ESE,107,4.0,4.0,74,0.00,,---,0.00,VWS V14.01,2013-04-22 07:16:00,
2013-04-22 03:21:00,37.3,29.8,30.49,ESE,112,0.0,5.0,74,0.00,,---,0.00,VWS V14.01,2013-04-22 07:21:00,
2013-04-22 03:26:00,37.5,30.3,30.49,ESE,103,3.0,6.0,75,0.00,,---,0.00,VWS V14.01,2013-04-22 07:26:00,
2013-04-22 03:31:00,37.3,30.1,30.49,ESE,116,4.0,5.0,75,0.00,,---,0.00,VWS V14.01,2013-04-22 07:31:00,
2013-04-22 03:36:00,37.2,30.0,30.49,ESE,117,0.0,3.0,75,0.00,,---,0.00,VWS V14.01,2013-04-22 07:36:00,
2013-04-22 03:41:00,37.0,30.1,30.49,ESE,107,2.0,4.0,76,0.00,,---,0.00,VWS V14.01,2013-04-22 07:41:00,
2013-04-22 03:46:00,37.2,30.7,30.49,East,94,3.0,5.0,77,0.00,,---,0.00,VWS V14.01,2013-04-22 07:46:00,
2013-04-22 03:51:00,37.2,30.7,30.49,ESE,108,4.0,4.0,77,0.00,,---,0.00,VWS V14.01,2013-04-22 07:51:00,
2013-04-22 03:56:00,37.0,30.5,30.49,East,100,2.0,5.0,77,0.00,,---,0.00,VWS V14.01,2013-04-22 07:56:00,
2013-04-22 04:01:00,36.6,30.4,30.49,SE,130,2.0,3.0,78,0.00,,---,0.00,VWS V14.01,2013-04-22 08:01:00,
2013-04-22 04:06:00,36.5,30.3,30.49,ESE,115,0.0,0.0,78,0.00,,---,0.00,VWS V14.01,2013-04-22 08:06:00,
2013-04-22 04:11:00,36.8,29.6,30.49,ESE,115,3.0,4.0,75,0.00,,---,0.00,VWS V14.01,2013-04-22 08:11:00,
2013-04-22 04:16:00,36.8,29.6,30.49,ESE,106,3.0,6.0,75,0.00,,---,0.00,VWS V14.01,2013-04-22 08:16:00,
2013-04-22 04:21:00,36.9,29.4,30.49,ESE,111,0.0,0.0,74,0.00,,---,0.00,VWS V14.01,2013-04-22 08:21:00,
2013-04-22 04:26:00,36.9,29.7,30.49,East,96,1.0,2.0,75,0.00,,---,0.00,VWS V14.01,2013-04-22 08:26:00,
2013-04-22 04:31:00,36.9,29.7,30.49,ESE,106,0.0,0.0,75,0.00,,---,0.00,VWS V14.01,2013-04-22 08:31:00,
2013-04-22 04:36:00,36.3,29.5,30.49,ESE,111,2.0,4.0,76,0.00,,---,0.00,VWS V14.01,2013-04-22 08:36:00,
2013-04-22 04:41:00,36.5,29.7,30.49,ESE,107,0.0,0.0,76,0.00,,---,0.00,VWS V14.01,2013-04-22 08:41:00,
2013-04-22 04:46:00,36.3,29.5,30.48,ESE,115,3.0,4.0,76,0.00,,---,0.00,VWS V14.01,2013-04-22 08:46:00,
2013-04-22 04:51:00,36.0,29.2,30.48,ESE,106,2.0,3.0,76,0.00,,---,0.00,VWS V14.01,2013-04-22 08:51:00,
2013-04-22 04:56:00,36.8,29.0,30.48,ESE,108,0.0,0.0,73,0.00,,---,0.00,VWS V14.01,2013-04-22 08:56:00,
2013-04-22 05:01:00,36.8,28.6,30.48,ESE,108,0.0,0.0,72,0.00,,---,0.00,VWS V14.01,2013-04-22 09:01:00,
2013-04-22 05:06:00,37.0,28.1,30.48,ESE,119,0.0,3.0,70,0.00,,---,0.00,VWS V14.01,2013-04-22 09:06:00,
2013-04-22 05:11:00,36.5,28.0,30.48,SSE,152,0.0,0.0,71,0.00,,---,0.00,VWS V14.01,2013-04-22 09:11:00,
2013-04-22 05:16:00,35.6,28.5,30.48,SSE,152,0.0,0.0,75,0.00,,---,0.00,VWS V14.01,2013-04-22 09:16:00,
2013-04-22 05:21:00,35.6,28.5,30.48,SSE,152,0.0,0.0,75,0.00,,---,0.00,VWS V14.01,2013-04-22 09:21:00,
2013-04-22 05:26:00,35.0,28.2,30.48,SSE,152,0.0,0.0,76,0.00,,---,0.00,VWS V14.01,2013-04-22 09:26:00,
2013-04-22 05:31:00,35.2,28.4,30.48,SSE,152,0.0,0.0,76,0.00,,---,0.00,VWS V14.01,2013-04-22 09:31:00,
2013-04-22 05:36:00,35.0,28.2,30.48,SSE,152,0.0,0.0,76,0.00,,---,0.00,VWS V14.01,2013-04-22 09:36:00,
2013-04-22 05:41:00,35.2,28.4,30.48,SSE,152,0.0,0.0,76,0.00,,---,0.00,VWS V14.01,2013-04-22 09:41:00,
2013-04-22 05:46:00,35.5,28.7,30.48,SSE,152,0.0,0.0,76,0.00,,---,0.00,VWS V14.01,2013-04-22 09:46:00,
2013-04-22 05:51:00,35.3,28.8,30.48,SSE,152,0.0,0.0,77,0.00,,---,0.00,VWS V14.01,2013-04-22 09:51:00,
2013-04-22 05:56:00,35.5,28.7,30.48,SSE,152,0.0,0.0,76,0.00,,---,0.00,VWS V14.01,2013-04-22 09:56:00,
2013-04-22 06:01:00,35.5,28.7,30.48,ESE,111,0.0,0.0,76,0.00,,---,0.00,VWS V14.01,2013-04-22 10:01:00,
2013-04-22 06:06:00,36.0,28.5,30.48,East,91,0.0,3.0,74,0.00,,---,0.00,VWS V14.01,2013-04-22 10:06:00,
2013-04-22 06:11:00,36.3,28.5,30.48,East,92,0.0,0.0,73,0.00,,---,0.00,VWS V14.01,2013-04-22 10:11:00,
2013-04-22 06:16:00,36.3,28.5,30.48,East,93,3.0,4.0,73,0.00,,---,0.00,VWS V14.01,2013-04-22 10:16:00,
2013-04-22 06:21:00,36.6,28.4,30.48,ESE,107,0.0,0.0,72,0.00,,---,0.00,VWS V14.01,2013-04-22 10:21:00,
2013-04-22 06:26:00,36.5,28.7,30.48,East,101,0.0,3.0,73,0.00,,---,0.00,VWS V14.01,2013-04-22 10:26:00,
2013-04-22 06:31:00,36.6,28.4,30.48,ESE,107,0.0,2.0,72,0.00,,---,0.00,VWS V14.01,2013-04-22 10:31:00,
2013-04-22 06:36:00,36.8,28.6,30.48,ESE,116,4.0,4.0,72,0.00,,---,0.00,VWS V14.01,2013-04-22 10:36:00,
2013-04-22 06:41:00,36.8,28.6,30.48,East,96,2.0,8.0,72,0.00,,---,0.00,VWS V14.01,2013-04-22 10:41:00,
2013-04-22 06:46:00,36.6,28.8,30.49,East,99,1.0,5.0,73,0.00,,---,0.00,VWS V14.01,2013-04-22 10:46:00,
2013-04-22 06:51:00,36.5,28.7,30.49,East,92,3.0,4.0,73,0.00,,---,0.00,VWS V14.01,2013-04-22 10:51:00,
2013-04-22 06:56:00,36.6,28.8,30.49,East,98,2.0,5.0,73,0.00,,---,0.00,VWS V14.01,2013-04-22 10:56:00,
2013-04-22 07:01:00,36.6,28.8,30.49,East,94,0.0,0.0,73,0.00,,---,0.00,VWS V14.01,2013-04-22 11:01:00,
2013-04-22 07:06:00,36.6,28.8,30.49,East,101,0.0,5.0,73,0.00,,---,0.00,VWS V14.01,2013-04-22 11:06:00,
2013-04-22 07:11:00,36.9,28.7,30.49,East,84,0.0,0.0,72,0.00,,---,0.00,VWS V14.01,2013-04-22 11:11:00,
2013-04-22 07:16:00,37.0,28.8,30.49,East,96,0.0,1.0,72,0.00,,---,0.00,VWS V14.01,2013-04-22 11:16:00,
2013-04-22 07:21:00,37.2,28.7,30.49,East,92,3.0,4.0,71,0.00,,---,0.00,VWS V14.01,2013-04-22 11:21:00,
2013-04-22 07:26:00,37.5,29.3,30.49,ENE,67,3.0,3.0,72,0.00,,---,0.00,VWS V14.01,2013-04-22 11:26:00,
2013-04-22 07:31:00,37.6,30.4,30.49,East,92,0.0,0.0,75,0.00,,---,0.00,VWS V14.01,2013-04-22 11:31:00,
2013-04-22 07:36:00,37.9,30.4,30.49,East,84,6.0,9.0,74,0.00,,---,0.00,VWS V14.01,2013-04-22 11:36:00,
2013-04-22 07:41:00,37.8,30.6,30.49,NE,36,0.0,0.0,75,0.00,,---,0.00,VWS V14.01,2013-04-22 11:41:00,
2013-04-22 07:46:00,37.6,30.1,30.49,ENE,78,1.0,4.0,74,0.00,,---,0.00,VWS V14.01,2013-04-22 11:46:00,
2013-04-22 07:51:00,37.8,29.6,30.49,East,82,0.0,7.0,72,0.00,,---,0.00,VWS V14.01,2013-04-22 11:51:00,
2013-04-22 07:56:00,37.9,29.4,30.49,East,90,13.0,13.0,71,0.00,,---,0.00,VWS V14.01,2013-04-22 11:56:00,
2013-04-22 08:01:00,38.0,29.1,30.49,ENE,63,3.0,9.0,70,0.00,,---,0.00,VWS V14.01,2013-04-22 12:01:00,
2013-04-22 08:06:00,38.0,29.1,30.49,East,95,11.0,12.0,70,0.00,,---,0.00,VWS V14.01,2013-04-22 12:06:00,
2013-04-22 08:11:00,38.2,28.9,30.49,East,90,5.0,7.0,69,0.00,,---,0.00,VWS V14.01,2013-04-22 12:11:00,
2013-04-22 08:16:00,37.9,28.6,30.49,East,90,0.0,7.0,69,0.00,,---,0.00,VWS V14.01,2013-04-22 12:16:00,
2013-04-22 08:21:00,38.0,28.8,30.49,ESE,114,5.0,7.0,69,0.00,,---,0.00,VWS V14.01,2013-04-22 12:21:00,
2013-04-22 08:26:00,38.0,28.8,30.49,NE,45,0.0,11.0,69,0.00,,---,0.00,VWS V14.01,2013-04-22 12:26:00,
2013-04-22 08:31:00,38.0,28.4,30.50,East,88,11.0,12.0,68,0.00,,---,0.00,VWS V14.01,2013-04-22 12:31:00,
2013-04-22 08:36:00,38.2,28.6,30.50,ESE,118,9.0,16.0,68,0.00,,---,0.00,VWS V14.01,2013-04-22 12:36:00,
2013-04-22 08:41:00,38.5,28.9,30.50,East,93,6.0,11.0,68,0.00,,---,0.00,VWS V14.01,2013-04-22 12:41:00,
2013-04-22 08:46:00,39.1,29.5,30.50,NE,49,4.0,10.0,68,0.00,,---,0.00,VWS V14.01,2013-04-22 12:46:00,
2013-04-22 08:51:00,38.9,28.9,30.50,ENE,64,5.0,6.0,67,0.00,,---,0.00,VWS V14.01,2013-04-22 12:51:00,
2013-04-22 08:56:00,39.1,29.1,30.50,ESE,115,11.0,11.0,67,0.00,,---,0.00,VWS V14.01,2013-04-22 12:56:00,
2013-04-22 09:01:00,39.5,29.5,30.50,East,84,2.0,6.0,67,0.00,,---,0.00,VWS V14.01,2013-04-22 13:01:00,
2013-04-22 09:06:00,39.5,29.5,30.50,SE,134,10.0,10.0,67,0.00,,---,0.00,VWS V14.01,2013-04-22 13:06:00,
2013-04-22 09:11:00,39.6,29.6,30.50,SE,132,0.0,10.0,67,0.00,,---,0.00,VWS V14.01,2013-04-22 13:11:00,
2013-04-22 09:16:00,40.1,30.4,30.49,ENE,65,0.0,4.0,68,0.00,,---,0.00,VWS V14.01,2013-04-22 13:16:00,
2013-04-22 09:21:00,39.9,29.9,30.49,East,100,7.0,13.0,67,0.00,,---,0.00,VWS V14.01,2013-04-22 13:21:00,
2013-04-22 09:26:00,39.8,30.1,30.49,ESE,114,7.0,17.0,68,0.00,,---,0.00,VWS V14.01,2013-04-22 13:26:00,
2013-04-22 09:31:00,40.2,30.9,30.49,ESE,115,0.0,7.0,69,0.00,,---,0.00,VWS V14.01,2013-04-22 13:31:00,
2013-04-22 09:36:00,40.6,30.5,30.49,East,90,5.0,11.0,67,0.00,,---,0.00,VWS V14.01,2013-04-22 13:36:00,
2013-04-22 09:41:00,40.3,30.2,30.49,East,86,3.0,8.0,67,0.00,,---,0.00,VWS V14.01,2013-04-22 13:41:00,
2013-04-22 09:46:00,41.3,30.8,30.49,NNE,15,0.0,6.0,66,0.00,,---,0.00,VWS V14.01,2013-04-22 13:46:00,
2013-04-22 09:51:00,41.2,30.7,30.49,East,87,3.0,13.0,66,0.00,,---,0.00,VWS V14.01,2013-04-22 13:51:00,
2013-04-22 09:56:00,41.6,31.5,30.49,East,95,8.0,11.0,67,0.00,,---,0.00,VWS V14.01,2013-04-22 13:56:00,
2013-04-22 10:01:00,41.6,31.1,30.49,East,95,9.0,9.0,66,0.00,,---,0.00,VWS V14.01,2013-04-22 14:01:00,
2013-04-22 10:06:00,41.6,31.5,30.49,East,83,5.0,6.0,67,0.00,,---,0.00,VWS V14.01,2013-04-22 14:06:00,
2013-04-22 10:11:00,42.5,31.6,30.49,ENE,70,2.0,4.0,65,0.00,,---,0.00,VWS V14.01,2013-04-22 14:11:00,
2013-04-22 10:16:00,42.2,30.9,30.49,NNE,15,2.0,6.0,64,0.00,,---,0.00,VWS V14.01,2013-04-22 14:16:00,
2013-04-22 10:21:00,42.8,31.1,30.49,East,86,1.0,6.0,63,0.00,,---,0.00,VWS V14.01,2013-04-22 14:21:00,
2013-04-22 10:26:00,42.6,30.9,30.49,SSE,156,0.0,0.0,63,0.00,,---,0.00,VWS V14.01,2013-04-22 14:26:00,
2013-04-22 10:31:00,42.9,30.8,30.49,East,95,10.0,10.0,62,0.00,,---,0.00,VWS V14.01,2013-04-22 14:31:00,
2013-04-22 10:36:00,43.8,30.8,30.49,East,83,0.0,5.0,60,0.00,,---,0.00,VWS V14.01,2013-04-22 14:36:00,
2013-04-22 10:41:00,44.1,30.3,30.49,NE,50,0.0,4.0,58,0.00,,---,0.00,VWS V14.01,2013-04-22 14:41:00,
2013-04-22 10:46:00,45.1,30.4,30.49,East,92,5.0,9.0,56,0.00,,---,0.00,VWS V14.01,2013-04-22 14:46:00,
2013-04-22 10:51:00,45.1,29.5,30.49,NE,53,0.0,10.0,54,0.00,,---,0.00,VWS V14.01,2013-04-22 14:51:00,
2013-04-22 10:56:00,44.8,29.2,30.49,South,191,4.0,11.0,54,0.00,,---,0.00,VWS V14.01,2013-04-22 14:56:00,
2013-04-22 11:01:00,44.5,28.9,30.49,ESE,114,9.0,12.0,54,0.00,,---,0.00,VWS V14.01,2013-04-22 15:01:00,
2013-04-22 11:06:00,44.3,30.0,30.49,ENE,63,2.0,2.0,57,0.00,,---,0.00,VWS V14.01,2013-04-22 15:06:00,
2013-04-22 11:11:00,44.2,29.5,30.49,ESE,116,4.0,4.0,56,0.00,,---,0.00,VWS V14.01,2013-04-22 15:11:00,
2013-04-22 11:16:00,44.8,29.2,30.48,ESE,117,5.0,7.0,54,0.00,,---,0.00,VWS V14.01,2013-04-22 15:16:00,
2013-04-22 11:21:00,44.9,28.8,30.48,NNE,26,0.0,2.0,53,0.00,,---,0.00,VWS V14.01,2013-04-22 15:21:00,
2013-04-22 11:26:00,45.2,30.9,30.48,SSE,153,4.0,9.0,57,0.00,,---,0.00,VWS V14.01,2013-04-22 15:26:00,
2013-04-22 11:31:00,44.9,29.7,30.47,East,88,4.0,9.0,55,0.00,,---,0.00,VWS V14.01,2013-04-22 15:31:00,
2013-04-22 11:36:00,45.8,31.0,30.47,SSE,155,3.0,7.0,56,0.00,,---,0.00,VWS V14.01,2013-04-22 15:36:00,
2013-04-22 11:41:00,46.2,29.1,30.47,SSE,155,3.0,4.0,51,0.00,,---,0.00,VWS V14.01,2013-04-22 15:41:00,
2013-04-22 11:46:00,46.0,29.4,30.47,North,5,1.0,2.0,52,0.00,,---,0.00,VWS V14.01,2013-04-22 15:46:00,
2013-04-22 11:51:00,47.0,32.6,30.47,ESE,119,1.0,4.0,57,0.00,,---,0.00,VWS V14.01,2013-04-22 15:51:00,
2013-04-22 11:56:00,46.8,31.0,30.47,East,86,9.0,9.0,54,0.00,,---,0.00,VWS V14.01,2013-04-22 15:56:00,
2013-04-22 12:01:00,47.3,30.6,30.47,NNE,31,3.0,5.0,52,0.00,,---,0.00,VWS V14.01,2013-04-22 16:01:00,
2013-04-22 12:06:00,46.7,29.5,30.47,East,98,3.0,9.0,51,0.00,,---,0.00,VWS V14.01,2013-04-22 16:06:00,
2013-04-22 12:11:00,46.5,30.8,30.47,SSW,203,3.0,7.0,54,0.00,,---,0.00,VWS V14.01,2013-04-22 16:11:00,
2013-04-22 12:16:00,47.7,33.7,30.46,SE,136,10.0,10.0,58,0.00,,---,0.00,VWS V14.01,2013-04-22 16:16:00,
2013-04-22 12:21:00,46.7,28.6,30.46,ENE,65,2.0,15.0,49,0.00,,---,0.00,VWS V14.01,2013-04-22 16:21:00,
2013-04-22 12:26:00,47.4,31.1,30.46,NW,317,0.0,0.0,53,0.00,,---,0.00,VWS V14.01,2013-04-22 16:26:00,
2013-04-22 12:31:00,48.0,32.2,30.46,ENE,63,1.0,5.0,54,0.00,,---,0.00,VWS V14.01,2013-04-22 16:31:00,
2013-04-22 12:36:00,47.9,30.7,30.46,East,99,1.0,3.0,51,0.00,,---,0.00,VWS V14.01,2013-04-22 16:36:00,
2013-04-22 12:41:00,47.6,29.9,30.46,East,88,0.0,4.0,50,0.00,,---,0.00,VWS V14.01,2013-04-22 16:41:00,
2013-04-22 12:46:00,47.6,30.4,30.46,East,87,2.0,3.0,51,0.00,,---,0.00,VWS V14.01,2013-04-22 16:46:00,
2013-04-22 12:51:00,48.5,31.2,30.46,East,82,4.0,12.0,51,0.00,,---,0.00,VWS V14.01,2013-04-22 16:51:00,
2013-04-22 12:56:00,48.0,30.3,30.46,SE,145,3.0,6.0,50,0.00,,---,0.00,VWS V14.01,2013-04-22 16:56:00,
2013-04-22 13:01:00,48.5,31.7,30.45,SSE,166,0.0,4.0,52,0.00,,---,0.00,VWS V14.01,2013-04-22 17:01:00,
2013-04-22 13:06:00,48.8,33.4,30.45,SE,137,0.0,0.0,55,0.00,,---,0.00,VWS V14.01,2013-04-22 17:06:00,
2013-04-22 13:11:00,48.5,30.7,30.45,SSW,196,7.0,7.0,50,0.00,,---,0.00,VWS V14.01,2013-04-22 17:11:00,
2013-04-22 13:16:00,48.9,31.1,30.44,ESE,102,9.0,12.0,50,0.00,,---,0.00,VWS V14.01,2013-04-22 17:16:00,
2013-04-22 13:21:00,48.9,31.6,30.44,ENE,69,3.0,7.0,51,0.00,,---,0.00,VWS V14.01,2013-04-22 17:21:00,
2013-04-22 13:25:00,49.1,30.3,30.44,East,84,6.0,7.0,48,0.00,,---,0.00,VWS V14.01,2013-04-22 17:25:00,
2013-04-22 13:30:00,48.8,32.4,30.44,South,184,3.0,3.0,53,0.00,,---,0.00,VWS V14.01,2013-04-22 17:30:00,
2013-04-22 13:35:00,49.1,30.3,30.44,North,5,0.0,0.0,48,0.00,,---,0.00,VWS V14.01,2013-04-22 17:35:00,
2013-04-22 13:40:00,49.4,32.0,30.44,SSW,193,0.0,5.0,51,0.00,,---,0.00,VWS V14.01,2013-04-22 17:40:00,
2013-04-22 13:45:00,50.1,31.7,30.42,ESE,103,6.0,7.0,49,0.00,,---,0.00,VWS V14.01,2013-04-22 17:45:00,
2013-04-22 13:50:00,50.2,31.8,30.42,East,94,5.0,10.0,49,0.00,,---,0.00,VWS V14.01,2013-04-22 17:50:00,
2013-04-22 13:55:00,49.2,31.4,30.42,East,80,2.0,7.0,50,0.00,,---,0.00,VWS V14.01,2013-04-22 17:55:00,
2013-04-22 14:00:00,49.9,32.5,30.42,East,95,5.0,5.0,51,0.00,,---,0.00,VWS V14.01,2013-04-22 18:00:00,
2013-04-22 14:05:00,49.8,30.9,30.42,NE,45,0.0,1.0,48,0.00,,---,0.00,VWS V14.01,2013-04-22 18:05:00,
2013-04-22 14:10:00,50.2,32.8,30.42,NNE,24,5.0,6.0,51,0.00,,---,0.00,VWS V14.01,2013-04-22 18:10:00,
2013-04-22 14:15:00,51.4,32.9,30.41,East,82,0.0,0.0,49,0.00,,---,0.00,VWS V14.01,2013-04-22 18:15:00,
2013-04-22 14:20:00,50.2,29.1,30.41,ENE,71,4.0,10.0,44,0.00,,---,0.00,VWS V14.01,2013-04-22 18:20:00,
2013-04-22 14:25:00,49.9,31.5,30.41,ENE,74,0.0,0.0,49,0.00,,---,0.00,VWS V14.01,2013-04-22 18:25:00,
2013-04-22 14:30:00,51.3,35.2,30.41,East,101,10.0,10.0,54,0.00,,---,0.00,VWS V14.01,2013-04-22 18:30:00,
2013-04-22 14:35:00,51.1,31.1,30.41,ENE,68,0.0,0.0,46,0.00,,---,0.00,VWS V14.01,2013-04-22 18:35:00,
2013-04-22 14:40:00,50.7,30.7,30.41,East,90,0.0,2.0,46,0.00,,---,0.00,VWS V14.01,2013-04-22 18:40:00,
2013-04-22 14:45:00,51.4,31.9,30.40,SE,137,2.0,5.0,47,0.00,,---,0.00,VWS V14.01,2013-04-22 18:45:00,
2013-04-22 14:50:00,51.9,30.7,30.40,North,360,0.0,2.0,44,0.00,,---,0.00,VWS V14.01,2013-04-22 18:50:00,
2013-04-22 14:55:00,51.7,31.1,30.40,ENE,65,2.0,8.0,45,0.00,,---,0.00,VWS V14.01,2013-04-22 18:55:00,
2013-04-22 15:00:00,51.3,32.3,30.40,ESE,114,3.0,5.0,48,0.00,,---,0.00,VWS V14.01,2013-04-22 19:00:00,
2013-04-22 15:05:00,51.6,33.6,30.40,ESE,123,0.0,0.0,50,0.00,,---,0.00,VWS V14.01,2013-04-22 19:05:00,
2013-04-22 15:10:00,52.2,31.0,30.40,East,96,3.0,7.0,44,0.00,,---,0.00,VWS V14.01,2013-04-22 19:10:00,
2013-04-22 15:15:00,52.2,34.1,30.39,NNE,28,2.0,2.0,50,0.00,,---,0.00,VWS V14.01,2013-04-22 19:15:00,
2013-04-22 15:20:00,51.6,31.0,30.39,East,80,7.0,7.0,45,0.00,,---,0.00,VWS V14.01,2013-04-22 19:20:00,
2013-04-22 15:25:00,51.7,31.1,30.39,ESE,115,8.0,10.0,45,0.00,,---,0.00,VWS V14.01,2013-04-22 19:25:00,
2013-04-22 15:30:00,51.0,30.4,30.39,ESE,116,4.0,5.0,45,0.00,,---,0.00,VWS V14.01,2013-04-22 19:30:00,
2013-04-22 15:35:00,51.7,29.9,30.39,ENE,76,6.0,7.0,43,0.00,,---,0.00,VWS V14.01,2013-04-22 19:35:00,
2013-04-22 15:40:00,51.7,31.6,30.39,South,188,4.0,9.0,46,0.00,,---,0.00,VWS V14.01,2013-04-22 19:40:00,
2013-04-22 15:45:00,51.1,30.0,30.38,East,86,1.0,3.0,44,0.00,,---,0.00,VWS V14.01,2013-04-22 19:45:00,
2013-04-22 15:50:00,51.4,29.7,30.38,ENE,76,6.0,10.0,43,0.00,,---,0.00,VWS V14.01,2013-04-22 19:50:00,
2013-04-22 15:55:00,52.2,33.1,30.38,ESE,121,3.0,3.0,48,0.00,,---,0.00,VWS V14.01,2013-04-22 19:55:00,
2013-04-22 16:00:00,52.8,31.5,30.37,ESE,123,7.0,13.0,44,0.00,,---,0.00,VWS V14.01,2013-04-22 20:00:00,
2013-04-22 16:05:00,52.8,33.2,30.37,East,96,12.0,12.0,47,0.00,,---,0.00,VWS V14.01,2013-04-22 20:05:00,
2013-04-22 16:10:00,52.3,32.2,30.37,East,93,0.0,0.0,46,0.00,,---,0.00,VWS V14.01,2013-04-22 20:10:00,
2013-04-22 16:15:00,52.2,32.6,30.36,ESE,119,1.0,6.0,47,0.00,,---,0.00,VWS V14.01,2013-04-22 20:15:00,
2013-04-22 16:20:00,51.6,29.9,30.36,ESE,109,0.0,0.0,43,0.00,,---,0.00,VWS V14.01,2013-04-22 20:20:00,
2013-04-22 16:25:00,51.9,31.2,30.36,ESE,121,4.0,6.0,45,0.00,,---,0.00,VWS V14.01,2013-04-22 20:25:00,
2013-04-22 16:30:00,51.9,30.7,30.36,NW,323,0.0,0.0,44,0.00,,---,0.00,VWS V14.01,2013-04-22 20:30:00,
2013-04-22 16:35:00,52.2,31.0,30.36,ENE,76,6.0,6.0,44,0.00,,---,0.00,VWS V14.01,2013-04-22 20:35:00,
2013-04-22 16:40:00,51.7,31.1,30.36,East,92,0.0,0.0,45,0.00,,---,0.00,VWS V14.01,2013-04-22 20:40:00,
2013-04-22 16:45:00,52.2,32.1,30.36,East,99,3.0,5.0,46,0.00,,---,0.00,VWS V14.01,2013-04-22 20:45:00,
2013-04-22 16:50:00,52.2,31.0,30.36,ESE,110,5.0,5.0,44,0.00,,---,0.00,VWS V14.01,2013-04-22 20:50:00,
2013-04-22 16:55:00,52.2,31.5,30.36,ENE,67,5.0,5.0,45,0.00,,---,0.00,VWS V14.01,2013-04-22 20:55:00,
2013-04-22 17:00:00,52.0,32.4,30.35,East,99,0.0,0.0,47,0.00,,---,0.00,VWS V14.01,2013-04-22 21:00:00,
2013-04-22 17:05:00,52.3,31.6,30.35,NE,44,0.0,0.0,45,0.00,,---,0.00,VWS V14.01,2013-04-22 21:05:00,
2013-04-22 17:10:00,51.9,31.8,30.35,East,101,6.0,6.0,46,0.00,,---,0.00,VWS V14.01,2013-04-22 21:10:00,
2013-04-22 17:15:00,51.6,31.5,30.35,ESE,118,2.0,2.0,46,0.00,,---,0.00,VWS V14.01,2013-04-22 21:15:00,
2013-04-22 17:20:00,51.7,31.6,30.35,East,89,3.0,3.0,46,0.00,,---,0.00,VWS V14.01,2013-04-22 21:20:00,
2013-04-22 17:25:00,52.0,30.8,30.35,East,97,9.0,9.0,44,0.00,,---,0.00,VWS V14.01,2013-04-22 21:25:00,
2013-04-22 17:30:00,51.6,31.0,30.35,East,82,5.0,5.0,45,0.00,,---,0.00,VWS V14.01,2013-04-22 21:30:00,
2013-04-22 17:35:00,51.3,31.2,30.35,South,173,3.0,4.0,46,0.00,,---,0.00,VWS V14.01,2013-04-22 21:35:00,
2013-04-22 17:40:00,51.6,32.0,30.35,ENE,78,8.0,11.0,47,0.00,,---,0.00,VWS V14.01,2013-04-22 21:40:00,
2013-04-22 17:45:00,51.9,32.3,30.34,SE,139,0.0,0.0,47,0.00,,---,0.00,VWS V14.01,2013-04-22 21:45:00,
2013-04-22 17:50:00,51.9,31.8,30.34,NNE,25,0.0,2.0,46,0.00,,---,0.00,VWS V14.01,2013-04-22 21:50:00,
2013-04-22 17:55:00,51.7,31.1,30.34,NE,42,3.0,3.0,45,0.00,,---,0.00,VWS V14.01,2013-04-22 21:55:00,
2013-04-22 18:00:00,51.9,30.7,30.34,East,101,0.0,0.0,44,0.00,,---,0.00,VWS V14.01,2013-04-22 22:00:00,
2013-04-22 18:05:00,51.7,31.6,30.34,ENE,76,3.0,3.0,46,0.00,,---,0.00,VWS V14.01,2013-04-22 22:05:00,
2013-04-22 18:10:00,51.7,33.2,30.34,South,176,5.0,5.0,49,0.00,,---,0.00,VWS V14.01,2013-04-22 22:10:00,
2013-04-22 18:15:00,51.6,31.0,30.34,ESE,103,6.0,6.0,45,0.00,,---,0.00,VWS V14.01,2013-04-22 22:15:00,
2013-04-22 18:20:00,52.0,31.9,30.34,ESE,102,0.0,0.0,46,0.00,,---,0.00,VWS V14.01,2013-04-22 22:20:00,
2013-04-22 18:25:00,52.0,30.8,30.34,NNE,24,0.0,0.0,44,0.00,,---,0.00,VWS V14.01,2013-04-22 22:25:00,
2013-04-22 18:30:00,51.7,30.5,30.34,East,79,3.0,4.0,44,0.00,,---,0.00,VWS V14.01,2013-04-22 22:30:00,
2013-04-22 18:35:00,51.6,32.0,30.34,SE,138,7.0,9.0,47,0.00,,---,0.00,VWS V14.01,2013-04-22 22:35:00,
2013-04-22 18:40:00,51.3,31.2,30.34,East,90,6.0,10.0,46,0.00,,---,0.00,VWS V14.01,2013-04-22 22:40:00,
2013-04-22 18:45:00,51.0,32.0,30.34,ESE,102,3.0,9.0,48,0.00,,---,0.00,VWS V14.01,2013-04-22 22:45:00,
2013-04-22 18:50:00,51.0,32.0,30.34,SE,129,0.0,7.0,48,0.00,,---,0.00,VWS V14.01,2013-04-22 22:50:00,
2013-04-22 18:55:00,50.7,31.2,30.34,South,177,2.0,8.0,47,0.00,,---,0.00,VWS V14.01,2013-04-22 22:55:00,
2013-04-22 19:00:00,50.4,31.5,30.34,South,183,0.0,9.0,48,0.00,,---,0.00,VWS V14.01,2013-04-22 23:00:00,
2013-04-22 19:05:00,50.2,31.8,30.34,ESE,109,2.0,9.0,49,0.00,,---,0.00,VWS V14.01,2013-04-22 23:05:00,
2013-04-22 19:10:00,49.9,31.5,30.34,SSE,147,2.0,11.0,49,0.00,,---,0.00,VWS V14.01,2013-04-22 23:10:00,
2013-04-22 19:15:00,49.8,31.9,30.34,SSE,151,4.0,4.0,50,0.00,,---,0.00,VWS V14.01,2013-04-22 23:15:00,
2013-04-22 19:20:00,49.5,31.6,30.34,ESE,117,2.0,8.0,50,0.00,,---,0.00,VWS V14.01,2013-04-22 23:20:00,
2013-04-22 19:25:00,49.2,31.9,30.34,SE,140,2.0,11.0,51,0.00,,---,0.00,VWS V14.01,2013-04-22 23:25:00,
2013-04-22 19:30:00,48.8,31.5,30.34,South,181,1.0,7.0,51,0.00,,---,0.00,VWS V14.01,2013-04-22 23:30:00,
2013-04-22 19:35:00,48.5,31.7,30.34,ESE,105,0.0,5.0,52,0.00,,---,0.00,VWS V14.01,2013-04-22 23:35:00,
2013-04-22 19:40:00,48.3,31.5,30.34,SE,126,0.0,7.0,52,0.00,,---,0.00,VWS V14.01,2013-04-22 23:40:00,
2013-04-22 19:45:00,48.0,31.7,30.34,SSE,156,0.0,6.0,53,0.00,,---,0.00,VWS V14.01,2013-04-22 23:45:00,
2013-04-22 19:50:00,47.7,31.9,30.34,SE,136,0.0,5.0,54,0.00,,---,0.00,VWS V14.01,2013-04-22 23:50:00,
2013-04-22 19:55:00,47.3,31.5,30.34,ESE,117,0.0,2.0,54,0.00,,---,0.00,VWS V14.01,2013-04-22 23:55:00,
2013-04-22 20:00:00,47.0,31.7,30.35,ESE,107,0.0,5.0,55,0.00,,---,0.00,VWS V14.01,2013-04-23 00:00:00,
2013-04-22 20:05:00,46.7,31.4,30.35,ESE,117,6.0,7.0,55,0.00,,---,0.00,VWS V14.01,2013-04-23 00:05:00,
2013-04-22 20:10:00,46.5,31.7,30.35,ESE,114,0.0,6.0,56,0.00,,---,0.00,VWS V14.01,2013-04-23 00:10:00,
2013-04-22 20:15:00,46.2,31.4,30.35,East,94,3.0,6.0,56,0.00,,---,0.00,VWS V14.01,2013-04-23 00:15:00,
2013-04-22 20:20:00,46.0,31.6,30.35,East,95,0.0,4.0,57,0.00,,---,0.00,VWS V14.01,2013-04-23 00:20:00,
2013-04-22 20:25:00,45.8,31.5,30.35,ESE,107,0.0,4.0,57,0.00,,---,0.00,VWS V14.01,2013-04-23 00:25:00,
2013-04-22 20:30:00,45.4,31.1,30.36,ESE,107,0.0,0.0,57,0.00,,---,0.00,VWS V14.01,2013-04-23 00:30:00,
2013-04-22 20:35:00,45.4,31.5,30.36,ESE,103,0.0,10.0,58,0.00,,---,0.00,VWS V14.01,2013-04-23 00:35:00,
2013-04-22 20:40:00,45.2,31.3,30.36,SE,130,0.0,2.0,58,0.00,,---,0.00,VWS V14.01,2013-04-23 00:40:00,
2013-04-22 20:45:00,44.8,31.4,30.36,SE,130,0.0,0.0,59,0.00,,---,0.00,VWS V14.01,2013-04-23 00:45:00,
2013-04-22 20:50:00,44.8,31.4,30.36,SE,130,0.0,0.0,59,0.00,,---,0.00,VWS V14.01,2013-04-23 00:50:00,
2013-04-22 20:55:00,44.6,31.6,30.36,SE,130,0.0,2.0,60,0.00,,---,0.00,VWS V14.01,2013-04-23 00:55:00,
2013-04-22 21:00:00,44.6,31.6,30.36,SE,130,0.0,0.0,60,0.00,,---,0.00,VWS V14.01,2013-04-23 01:00:00,
2013-04-22 21:05:00,44.5,31.5,30.36,SE,130,0.0,0.0,60,0.00,,---,0.00,VWS V14.01,2013-04-23 01:05:00,
2013-04-22 21:10:00,44.1,31.1,30.36,SE,130,0.0,2.0,60,0.00,,---,0.00,VWS V14.01,2013-04-23 01:10:00,
2013-04-22 21:15:00,43.6,31.0,30.36,SE,130,0.0,0.0,61,0.00,,---,0.00,VWS V14.01,2013-04-23 01:15:00,
2013-04-22 21:20:00,43.5,31.0,30.36,East,82,0.0,3.0,61,0.00,,---,0.00,VWS V14.01,2013-04-23 01:20:00,
2013-04-22 21:25:00,43.2,31.1,30.36,East,82,0.0,0.0,62,0.00,,---,0.00,VWS V14.01,2013-04-23 01:25:00,
2013-04-22 21:30:00,42.9,31.2,30.36,East,82,0.0,2.0,63,0.00,,---,0.00,VWS V14.01,2013-04-23 01:30:00,
2013-04-22 21:35:00,42.9,31.2,30.36,East,82,0.0,0.0,63,0.00,,---,0.00,VWS V14.01,2013-04-23 01:35:00,
2013-04-22 21:40:00,42.5,31.6,30.36,East,82,0.0,0.0,65,0.00,,---,0.00,VWS V14.01,2013-04-23 01:40:00,
2013-04-22 21:45:00,41.9,31.4,30.37,East,82,0.0,0.0,66,0.00,,---,0.00,VWS V14.01,2013-04-23 01:45:00,
2013-04-22 21:50:00,41.9,31.4,30.37,East,83,0.0,1.0,66,0.00,,---,0.00,VWS V14.01,2013-04-23 01:50:00,
2013-04-22 21:55:00,42.1,31.6,30.37,NW,325,0.0,0.0,66,0.00,,---,0.00,VWS V14.01,2013-04-23 01:55:00,
2013-04-22 22:00:00,41.9,31.8,30.37,NW,325,0.0,0.0,67,0.00,,---,0.00,VWS V14.01,2013-04-23 02:00:00,
2013-04-22 22:05:00,41.3,31.5,30.37,NW,325,0.0,0.0,68,0.00,,---,0.00,VWS V14.01,2013-04-23 02:05:00,
2013-04-22 22:10:00,41.6,31.5,30.37,NNW,327,0.0,0.0,67,0.00,,---,0.00,VWS V14.01,2013-04-23 02:10:00,
2013-04-22 22:15:00,41.5,31.7,30.37,NNW,327,0.0,0.0,68,0.00,,---,0.00,VWS V14.01,2013-04-23 02:15:00,
2013-04-22 22:20:00,41.3,31.5,30.37,NNW,327,0.0,0.0,68,0.00,,---,0.00,VWS V14.01,2013-04-23 02:20:00,
2013-04-22 22:25:00,41.2,31.5,30.37,NNW,327,0.0,1.0,68,0.00,,---,0.00,VWS V14.01,2013-04-23 02:25:00,
2013-04-22 22:30:00,41.1,31.7,30.37,NNE,30,2.0,2.0,69,0.00,,---,0.00,VWS V14.01,2013-04-23 02:30:00,
2013-04-22 22:35:00,41.2,31.5,30.37,East,93,0.0,1.0,68,0.00,,---,0.00,VWS V14.01,2013-04-23 02:35:00,
2013-04-22 22:40:00,40.2,31.6,30.37,East,92,2.0,2.0,71,0.00,,---,0.00,VWS V14.01,2013-04-23 02:40:00,
2013-04-22 22:45:00,40.6,31.2,30.37,East,86,0.0,4.0,69,0.00,,---,0.00,VWS V14.01,2013-04-23 02:45:00,
2013-04-22 22:50:00,40.6,31.2,30.37,East,86,0.0,0.0,69,0.00,,---,0.00,VWS V14.01,2013-04-23 02:50:00,
2013-04-22 22:55:00,40.2,31.2,30.37,East,86,0.0,0.0,70,0.00,,---,0.00,VWS V14.01,2013-04-23 02:55:00,
2013-04-22 23:00:00,40.5,31.5,30.37,ESE,113,0.0,3.0,70,0.00,,---,0.00,VWS V14.01,2013-04-23 03:00:00,
2013-04-22 23:05:00,40.3,31.3,30.37,ESE,113,0.0,0.0,70,0.00,,---,0.00,VWS V14.01,2013-04-23 03:05:00,
2013-04-22 23:10:00,40.2,31.2,30.37,ESE,113,0.0,0.0,70,0.00,,---,0.00,VWS V14.01,2013-04-23 03:10:00,
2013-04-22 23:15:00,39.8,31.2,30.37,ESE,112,0.0,0.0,71,0.00,,---,0.00,VWS V14.01,2013-04-23 03:15:00,
2013-04-22 23:20:00,39.8,31.2,30.37,ESE,112,0.0,0.0,71,0.00,,---,0.00,VWS V14.01,2013-04-23 03:20:00,
2013-04-22 23:25:00,39.6,31.0,30.37,ESE,112,0.0,0.0,71,0.00,,---,0.00,VWS V14.01,2013-04-23 03:25:00,
2013-04-22 23:30:00,39.3,30.7,30.36,ESE,112,0.0,0.0,71,0.00,,---,0.00,VWS V14.01,2013-04-23 03:30:00,
2013-04-22 23:35:00,39.2,31.0,30.36,ESE,112,2.0,3.0,72,0.00,,---,0.00,VWS V14.01,2013-04-23 03:35:00,
2013-04-22 23:40:00,39.3,30.7,30.36,ESE,112,0.0,0.0,71,0.00,,---,0.00,VWS V14.01,2013-04-23 03:40:00,
2013-04-22 23:45:00,38.9,31.0,30.36,ESE,112,1.0,1.0,73,0.00,,---,0.00,VWS V14.01,2013-04-23 03:45:00,
2013-04-22 23:50:00,38.8,30.9,30.36,ESE,112,0.0,0.0,73,0.00,,---,0.00,VWS V14.01,2013-04-23 03:50:00,
2013-04-22 23:55:00,38.9,31.0,30.36,ESE,112,0.0,3.0,73,0.00,,---,0.00,VWS V14.01,2013-04-23 03:55:00,